createdAt,value
2019-04-06T00:00:39.254Z,51.67
2019-04-06T00:03:09.658Z,58.57
2019-04-06T00:05:40.124Z,63.27
2019-04-06T00:08:10.515Z,54.00
2019-04-06T00:10:40.955Z,54.60
2019-04-06T00:13:11.432Z,62.43
2019-04-06T00:15:42.005Z,49.90
2019-04-06T00:18:12.532Z,50.60
2019-04-06T00:20:42.950Z,48.43
2019-04-06T00:23:13.442Z,45.80
2019-04-06T00:25:44.992Z,48.20
2019-04-06T00:28:15.911Z,45.67
2019-04-06T00:30:53.488Z,43.20
2019-04-06T00:33:25.663Z,49.53
2019-04-06T00:35:56.088Z,44.93
2019-04-06T00:38:26.531Z,49.60
2019-04-06T00:40:56.938Z,42.90
2019-04-06T00:43:27.346Z,49.30
2019-04-06T00:45:57.705Z,52.60
2019-04-06T00:48:28.196Z,54.90
2019-04-06T00:50:58.618Z,56.33
2019-04-06T00:53:29.019Z,49.73
2019-04-06T00:55:59.465Z,46.60
2019-04-06T00:58:29.925Z,41.13
2019-04-06T01:01:00.400Z,65.87
2019-04-06T01:03:30.855Z,50.73
2019-04-06T01:06:01.216Z,53.40
2019-04-06T01:08:31.698Z,52.70
2019-04-06T01:11:02.102Z,48.17
2019-04-06T01:13:32.637Z,51.10
2019-04-06T01:16:03.133Z,50.00
2019-04-06T01:18:33.573Z,48.47
2019-04-06T01:21:03.963Z,47.57
2019-04-06T01:23:34.438Z,42.83
2019-04-06T01:26:07.334Z,50.17
2019-04-06T01:28:38.084Z,47.93
2019-04-06T01:31:08.560Z,53.00
2019-04-06T01:33:39.078Z,54.03
2019-04-06T01:36:09.526Z,50.60
2019-04-06T01:38:39.952Z,52.33
2019-04-06T01:41:10.318Z,54.77
2019-04-06T01:43:40.739Z,54.27
2019-04-06T01:46:11.217Z,54.43
2019-04-06T01:48:41.605Z,61.63
2019-04-06T01:51:12.008Z,58.83
2019-04-06T01:53:42.432Z,64.43
2019-04-06T01:56:18.314Z,63.43
2019-04-06T01:58:44.854Z,60.10
2019-04-06T02:01:19.635Z,61.73
2019-04-06T02:03:50.126Z,60.93
2019-04-06T02:06:20.625Z,65.23
2019-04-06T02:08:51.102Z,69.30
2019-04-06T02:11:21.479Z,69.63
2019-04-06T02:13:51.988Z,75.00
2019-04-06T02:16:22.493Z,68.33
2019-04-06T02:18:52.928Z,77.70
2019-04-06T02:21:23.517Z,71.27
2019-04-06T02:23:53.955Z,72.13
2019-04-06T02:26:30.144Z,71.77
2019-04-06T02:28:57.649Z,74.80
2019-04-06T02:31:45.817Z,79.73
2019-04-06T02:34:20.868Z,96.20
2019-04-06T02:36:52.867Z,83.03
2019-04-06T02:39:27.628Z,89.73
2019-04-06T02:41:59.569Z,88.67
2019-04-06T02:44:30.049Z,84.47
2019-04-06T02:47:00.389Z,88.42
2019-04-06T02:49:30.814Z,78.17
2019-04-06T02:52:01.265Z,86.20
2019-04-06T02:54:31.635Z,90.00
2019-04-06T02:57:02.019Z,87.00
2019-04-06T02:59:32.476Z,81.80
2019-04-06T03:02:02.831Z,94.40
2019-04-06T03:04:33.385Z,99.07
2019-04-06T03:07:03.788Z,103.60
2019-04-06T03:09:34.358Z,110.50
2019-04-06T03:12:06.462Z,108.10
2019-04-06T03:14:36.970Z,117.40
2019-04-06T03:17:07.648Z,95.70
2019-04-06T03:19:38.094Z,124.73
2019-04-06T03:22:08.512Z,120.63
2019-04-06T03:24:38.924Z,123.37
2019-04-06T03:27:09.514Z,121.07
2019-04-06T03:29:39.945Z,121.20
2019-04-06T03:32:10.420Z,133.33
2019-04-06T03:34:41.220Z,116.77
2019-04-06T03:37:11.945Z,120.10
2019-04-06T03:39:42.742Z,114.30
2019-04-06T03:42:13.283Z,113.03
2019-04-06T03:44:43.761Z,113.83
2019-04-06T03:47:14.223Z,123.33
2019-04-06T03:49:44.859Z,119.60
2019-04-06T03:52:15.227Z,126.67
2019-04-06T03:54:45.782Z,116.17
2019-04-06T03:57:17.089Z,118.70
2019-04-06T03:59:47.997Z,122.77
2019-04-06T04:02:18.272Z,120.07
2019-04-06T04:05:03.435Z,112.80
2019-04-06T04:07:34.004Z,117.13
2019-04-06T04:10:06.836Z,119.93
2019-04-06T04:12:39.016Z,139.13
2019-04-06T04:15:09.507Z,141.17
2019-04-06T04:17:44.554Z,143.57
2019-04-06T04:20:15.168Z,133.10
2019-04-06T04:22:45.562Z,135.97
2019-04-06T04:25:16.229Z,141.90
2019-04-06T04:27:48.487Z,151.83
2019-04-06T04:30:31.465Z,157.20
2019-04-06T04:32:51.246Z,146.93
2019-04-06T04:35:21.705Z,147.97
2019-04-06T04:37:52.105Z,122.93
2019-04-06T04:40:22.625Z,147.50
2019-04-06T04:42:54.140Z,116.80
2019-04-06T04:45:26.092Z,96.53
2019-04-06T04:47:56.652Z,99.50
2019-04-06T04:50:27.698Z,109.07
2019-04-06T04:53:07.396Z,100.30
2019-04-06T04:55:37.674Z,107.83
2019-04-06T04:58:08.485Z,99.80
2019-04-06T05:00:38.885Z,95.87
2019-04-06T05:03:09.502Z,103.70
2019-04-06T05:05:39.981Z,88.07
2019-04-06T05:08:10.515Z,89.27
2019-04-06T05:10:41.179Z,90.20
2019-04-06T05:13:23.356Z,88.43
2019-04-06T05:16:16.734Z,84.93
2019-04-06T05:18:53.474Z,85.07
2019-04-06T05:21:24.576Z,84.77
2019-04-06T05:26:59.573Z,89.00
2019-04-06T05:29:41.023Z,86.50
2019-04-06T05:32:37.128Z,77.67
2019-04-06T05:35:09.841Z,84.10
2019-04-06T05:37:42.803Z,82.10
2019-04-06T05:40:14.794Z,78.13
2019-04-06T05:42:45.282Z,71.70
2019-04-06T05:45:17.469Z,75.12
2019-04-06T05:47:49.784Z,84.85
2019-04-06T05:50:20.263Z,63.45
2019-04-06T05:52:57.551Z,60.23
2019-04-06T05:55:31.515Z,57.55
2019-04-06T05:58:04.812Z,57.03
2019-04-06T06:00:41.025Z,57.75
2019-04-06T06:03:11.899Z,59.30
2019-04-06T06:05:44.052Z,51.48
2019-04-06T06:08:16.209Z,59.30
2019-04-06T06:10:46.998Z,51.53
2019-04-06T06:13:17.495Z,50.00
2019-04-06T06:15:48.028Z,56.73
2019-04-06T06:18:26.436Z,50.52
2019-04-06T06:20:52.367Z,53.80
2019-04-06T06:23:24.767Z,51.83
2019-04-06T06:25:56.912Z,55.73
2019-04-06T06:28:30.215Z,56.73
2019-04-06T06:31:01.321Z,58.83
2019-04-06T06:33:46.779Z,52.47
2019-04-06T06:36:13.366Z,51.53
2019-04-06T06:38:49.119Z,60.60
2019-04-06T06:41:27.168Z,52.53
2019-04-06T06:43:59.294Z,52.93
2019-04-06T06:46:29.839Z,48.63
2019-04-06T06:49:09.769Z,48.23
2019-04-06T06:51:41.724Z,48.60
2019-04-06T06:54:21.703Z,49.70
2019-04-06T06:56:54.497Z,55.80
2019-04-06T06:59:28.006Z,48.80
2019-04-06T07:02:01.780Z,46.07
2019-04-06T07:04:34.677Z,52.50
2019-04-06T07:07:05.480Z,55.17
2019-04-06T07:09:42.512Z,42.70
2019-04-06T07:12:13.072Z,43.70
2019-04-06T07:14:43.796Z,39.83
2019-04-06T07:17:14.507Z,36.17
2019-04-06T07:19:53.386Z,33.00
2019-04-06T07:22:29.034Z,37.27
2019-04-06T07:24:59.763Z,37.50
2019-04-06T07:27:31.974Z,43.43
2019-04-06T07:30:17.209Z,37.03
2019-04-06T07:32:48.808Z,37.30
2019-04-06T07:35:23.154Z,37.67
2019-04-06T07:37:54.992Z,30.47
2019-04-06T07:40:25.504Z,30.80
2019-04-06T07:42:57.711Z,36.50
2019-04-06T07:45:32.179Z,29.87
2019-04-06T07:48:02.761Z,27.67
2019-04-06T07:50:37.320Z,28.47
2019-04-06T07:53:13.595Z,28.93
2019-04-06T07:55:44.209Z,28.53
2019-04-06T07:58:14.861Z,28.33
2019-04-06T08:00:45.977Z,27.80
2019-04-06T08:03:17.150Z,24.30
2019-04-06T08:05:49.122Z,24.07
2019-04-06T08:08:19.514Z,22.67
2019-04-06T08:10:50.096Z,21.37
2019-04-06T08:13:20.959Z,30.90
2019-04-06T08:15:51.371Z,34.10
2019-04-06T08:18:21.895Z,21.83
2019-04-06T08:20:55.523Z,21.20
2019-04-06T08:23:26.046Z,17.20
2019-04-06T08:26:02.137Z,20.00
2019-04-06T08:28:35.456Z,18.77
2019-04-06T08:31:07.853Z,25.73
2019-04-06T08:33:38.315Z,20.53
2019-04-06T08:36:08.729Z,19.50
2019-04-06T08:38:39.369Z,23.50
2019-04-06T08:41:09.865Z,25.37
2019-04-06T08:43:41.039Z,24.73
2019-04-06T08:46:11.597Z,27.27
2019-04-06T08:48:42.194Z,22.30
2019-04-06T08:51:13.903Z,20.37
2019-04-06T08:53:44.402Z,21.77
2019-04-06T08:56:14.810Z,24.27
2019-04-06T08:58:45.385Z,22.67
2019-04-06T09:01:15.915Z,21.17
2019-04-06T09:03:46.343Z,21.63
2019-04-06T09:06:16.865Z,19.37
2019-04-06T09:08:47.268Z,18.30
2019-04-06T09:11:17.745Z,19.53
2019-04-06T09:13:48.389Z,16.10
2019-04-06T09:16:18.950Z,21.03
2019-04-06T09:18:49.655Z,25.43
2019-04-06T09:21:22.510Z,16.40
2019-04-06T09:23:53.170Z,18.33
2019-04-06T09:26:23.669Z,19.50
2019-04-06T09:28:54.271Z,21.30
2019-04-06T09:31:24.714Z,16.60
2019-04-06T09:33:56.760Z,25.17
2019-04-06T09:36:29.349Z,34.37
2019-04-06T09:39:00.026Z,17.10
2019-04-06T09:41:32.424Z,39.83
2019-04-06T09:44:10.422Z,31.00
2019-04-06T09:46:42.819Z,29.73
2019-04-06T09:49:27.992Z,26.67
2019-04-06T09:52:05.284Z,24.30
2019-04-06T09:54:47.845Z,21.00
2019-04-06T09:57:20.547Z,19.33
2019-04-06T10:00:01.955Z,25.07
2019-04-06T10:02:40.444Z,32.03
2019-04-06T10:05:25.391Z,42.53
2019-04-06T10:08:06.866Z,43.50
2019-04-06T10:10:41.836Z,20.63
2019-04-06T10:13:14.416Z,17.57
2019-04-06T10:16:02.495Z,29.07
2019-04-06T10:18:34.722Z,27.53
2019-04-06T10:21:25.358Z,26.40
2019-04-06T10:24:00.960Z,30.23
2019-04-06T10:26:36.657Z,30.27
2019-04-06T10:29:25.244Z,20.17
2019-04-06T10:32:15.834Z,21.40
2019-04-06T10:34:57.518Z,34.20
2019-04-06T10:37:32.522Z,25.93
2019-04-06T10:40:07.456Z,26.30
2019-04-06T10:42:54.904Z,20.63
2019-04-06T10:45:27.092Z,20.43
2019-04-06T10:48:04.881Z,20.33
2019-04-06T10:50:37.362Z,19.17
2019-04-06T10:53:12.166Z,18.27
2019-04-06T10:55:47.159Z,16.37
2019-04-06T10:58:37.387Z,21.63
2019-04-06T11:01:26.229Z,22.67
2019-04-06T11:03:58.932Z,23.50
2019-04-06T11:06:34.307Z,18.37
2019-04-06T11:09:09.030Z,21.10
2019-04-06T11:11:44.199Z,24.70
2019-04-06T11:14:28.968Z,20.80
2019-04-06T11:17:04.758Z,22.27
2019-04-06T11:19:38.129Z,20.80
2019-04-06T11:22:19.446Z,19.10
2019-04-06T11:25:08.598Z,17.63
2019-04-06T11:27:55.961Z,20.63
2019-04-06T11:30:28.252Z,18.43
2019-04-06T11:33:09.156Z,19.97
2019-04-06T11:35:59.027Z,19.30
2019-04-06T11:38:47.238Z,15.87
2019-04-06T11:41:43.865Z,15.20
2019-04-06T11:44:19.099Z,17.27
2019-04-06T11:47:12.723Z,17.33
2019-04-06T11:50:06.451Z,25.80
2019-04-06T11:52:52.218Z,21.33
2019-04-06T11:55:47.634Z,20.53
2019-04-06T11:58:22.781Z,19.40
2019-04-06T12:01:04.814Z,21.93
2019-04-06T12:03:54.434Z,20.97
2019-04-06T12:06:28.964Z,23.00
2019-04-06T12:09:04.250Z,17.23
2019-04-06T12:11:40.218Z,17.00
2019-04-06T12:14:15.409Z,17.40
2019-04-06T12:17:02.466Z,15.97
2019-04-06T12:19:34.659Z,17.63
2019-04-06T12:22:08.589Z,17.53
2019-04-06T12:24:55.815Z,15.70
2019-04-06T12:27:27.920Z,16.00
2019-04-06T12:30:11.493Z,17.50
2019-04-06T12:33:01.754Z,17.90
2019-04-06T12:35:49.947Z,14.83
2019-04-06T12:38:25.521Z,17.30
2019-04-06T12:41:13.963Z,18.40
2019-04-06T12:43:47.716Z,16.63
2019-04-06T12:46:36.282Z,14.97
2019-04-06T12:49:23.584Z,18.77
2019-04-06T12:51:56.520Z,18.30
2019-04-06T12:54:35.198Z,16.93
2019-04-06T12:57:07.439Z,19.47
2019-04-06T12:59:49.079Z,16.37
2019-04-06T13:02:40.553Z,18.32
2019-04-06T13:05:18.224Z,18.67
2019-04-06T13:08:08.616Z,17.37
2019-04-06T13:10:41.657Z,18.23
2019-04-06T13:13:19.696Z,16.70
2019-04-06T13:15:51.917Z,17.60
2019-04-06T13:18:32.674Z,19.40
2019-04-06T13:21:09.126Z,15.67
2019-04-06T13:23:43.675Z,14.87
2019-04-06T13:26:19.152Z,18.10
2019-04-06T13:29:11.613Z,19.67
2019-04-06T13:31:43.861Z,20.73
2019-04-06T13:34:21.972Z,15.50
2019-04-06T13:37:12.001Z,14.93
2019-04-06T13:39:44.107Z,16.20
2019-04-06T13:42:16.329Z,17.47
2019-04-06T13:44:51.821Z,17.33
2019-04-06T13:47:31.917Z,15.33
2019-04-06T13:50:15.039Z,17.20
2019-04-06T13:52:49.823Z,18.27
2019-04-06T13:55:34.033Z,14.00
2019-04-06T13:58:12.336Z,14.97
2019-04-06T14:01:12.674Z,17.37
2019-04-06T14:03:43.755Z,16.37
2019-04-06T14:06:18.645Z,17.97
2019-04-06T14:09:03.349Z,18.53
2019-04-06T14:11:36.979Z,15.43
2019-04-06T14:14:17.879Z,22.43
2019-04-06T14:16:50.758Z,17.67
2019-04-06T14:19:25.517Z,15.13
2019-04-06T14:22:03.540Z,14.30
2019-04-06T14:24:47.165Z,17.77
2019-04-06T14:27:19.451Z,20.67
2019-04-06T14:30:03.843Z,19.90
2019-04-06T14:32:43.226Z,17.30
2019-04-06T14:35:24.461Z,20.03
2019-04-06T14:37:57.126Z,14.97
2019-04-06T14:40:31.140Z,19.23
2019-04-06T14:43:12.745Z,17.43
2019-04-06T14:46:03.134Z,13.40
2019-04-06T14:48:35.682Z,17.33
2019-04-06T14:51:24.851Z,16.30
2019-04-06T14:54:10.400Z,15.00
2019-04-06T14:56:45.520Z,20.37
2019-04-06T14:59:23.486Z,17.63
2019-04-06T15:02:11.914Z,25.40
2019-04-06T15:04:56.218Z,16.13
2019-04-06T15:07:45.926Z,18.50
2019-04-06T15:10:39.193Z,15.43
2019-04-06T15:13:12.038Z,15.03
2019-04-06T15:16:00.865Z,14.83
2019-04-06T15:18:44.093Z,13.57
2019-04-06T15:21:16.280Z,13.63
2019-04-06T15:23:49.050Z,15.97
2019-04-06T15:26:30.046Z,16.30
2019-04-06T15:29:38.703Z,13.80
2019-04-06T17:29:20.908Z,38.03
2019-04-06T17:32:09.183Z,38.13
2019-04-06T18:40:50.353Z,37.07
2019-04-06T18:43:22.118Z,35.23
2019-04-06T18:45:52.534Z,41.67
2019-04-06T18:48:25.021Z,40.10
2019-04-06T18:50:56.940Z,99.23
2019-04-06T18:53:28.818Z,36.47
2019-04-06T18:55:59.337Z,35.27
2019-04-06T18:58:31.712Z,43.93
2019-04-06T19:01:06.261Z,42.70
2019-04-06T19:03:39.366Z,41.60
2019-04-06T19:06:09.765Z,47.43
2019-04-06T19:08:42.073Z,55.40
2019-04-06T19:11:18.353Z,109.57
2019-04-06T19:13:51.032Z,34.70
2019-04-06T19:16:21.921Z,41.40
2019-04-06T19:18:52.769Z,35.97
2019-04-06T19:21:24.638Z,27.20
2019-04-06T19:23:55.099Z,30.10
2019-04-06T19:26:25.543Z,49.87
2019-04-06T19:28:57.414Z,26.03
2019-04-06T19:31:29.967Z,38.03
2019-04-06T19:34:02.563Z,31.83
2019-04-06T19:36:33.073Z,59.33
2019-04-06T19:39:09.659Z,37.63
2019-04-06T19:41:46.076Z,31.57
2019-04-06T19:44:16.528Z,28.73
2019-04-06T19:46:46.943Z,33.80
2019-04-06T19:49:17.805Z,26.13
2019-04-06T19:51:51.007Z,28.00
2019-04-06T19:54:21.456Z,25.87
2019-04-06T19:56:53.051Z,27.13
2019-04-06T19:59:23.496Z,24.53
2019-04-06T20:01:53.926Z,28.83
2019-04-06T20:04:24.527Z,26.90
2019-04-06T20:06:54.918Z,29.60
2019-04-06T20:09:28.070Z,24.93
2019-04-06T20:12:06.035Z,25.60
2019-04-06T20:14:32.688Z,25.07
2019-04-06T20:17:04.413Z,26.00
2019-04-06T20:19:35.099Z,27.97
2019-04-06T20:22:05.700Z,28.90
2019-04-06T20:24:36.359Z,28.40
2019-04-06T20:27:07.131Z,25.10
2019-04-06T20:29:37.955Z,27.58
2019-04-06T20:32:08.624Z,27.13
2019-04-06T20:34:39.617Z,26.87
2019-04-06T20:37:10.183Z,29.27
2019-04-06T20:39:41.005Z,32.40
2019-04-06T20:42:11.681Z,30.87
2019-04-06T20:44:45.191Z,31.33
2019-04-06T20:47:17.831Z,28.43
2019-04-06T20:49:48.370Z,30.70
2019-04-06T20:52:20.573Z,31.63
2019-04-06T20:54:51.507Z,42.63
2019-04-06T20:57:22.136Z,35.85
2019-04-06T20:59:52.645Z,31.03
2019-04-06T21:02:26.649Z,36.50
2019-04-06T21:04:57.526Z,33.07
2019-04-06T21:07:28.492Z,30.43
2019-04-06T21:09:59.401Z,27.27
2019-04-06T21:12:29.860Z,36.93
2019-04-06T21:15:15.883Z,37.53
2019-04-06T21:17:36.421Z,29.50
2019-04-06T21:20:10.708Z,33.77
2019-04-06T21:22:41.231Z,44.03
2019-04-06T21:25:14.758Z,36.77
2019-04-06T21:27:46.277Z,43.80
2019-04-06T21:30:17.085Z,39.07
2019-04-06T21:32:50.582Z,36.20
2019-04-06T21:35:22.597Z,42.27
2019-04-06T21:37:53.009Z,38.15
2019-04-06T21:40:23.722Z,39.73
2019-04-06T21:42:54.222Z,40.73
2019-04-06T21:45:26.161Z,41.57
2019-04-06T21:47:56.580Z,30.97
2019-04-06T21:50:27.522Z,35.43
2019-04-06T21:52:58.571Z,45.90
2019-04-06T21:55:29.281Z,38.47
2019-04-06T21:57:59.823Z,35.20
2019-04-06T22:00:38.585Z,42.10
2019-04-06T22:03:10.108Z,34.37
2019-04-06T22:05:41.040Z,35.60
2019-04-06T22:08:11.816Z,61.40
2019-04-06T22:10:42.363Z,43.93
2019-04-06T22:13:13.327Z,65.30
2019-04-06T22:15:43.785Z,56.63
2019-04-06T22:18:14.414Z,59.73
2019-04-06T22:20:45.427Z,63.30
2019-04-06T22:23:16.088Z,48.77
2019-04-06T22:25:47.096Z,48.07
2019-04-06T22:28:17.821Z,53.63
2019-04-06T22:30:48.547Z,47.37
2019-04-06T22:33:19.618Z,48.47
2019-04-06T22:35:50.698Z,43.37
2019-04-06T22:38:23.158Z,51.43
2019-04-06T22:40:53.721Z,46.93
2019-04-06T22:43:24.908Z,44.90
2019-04-06T22:45:55.534Z,46.73
2019-04-06T22:48:26.550Z,45.80
2019-04-06T22:50:57.764Z,50.90
2019-04-06T22:53:28.565Z,48.83
2019-04-06T22:55:59.104Z,45.10
2019-04-06T22:58:30.112Z,48.60
2019-04-06T23:01:05.401Z,44.33
2019-04-06T23:03:46.640Z,45.87
2019-04-06T23:06:19.692Z,45.53
2019-04-06T23:08:50.726Z,42.40
2019-04-06T23:11:21.682Z,43.70
2019-04-06T23:13:52.675Z,42.43
2019-04-06T23:16:23.147Z,40.13
2019-04-06T23:18:53.752Z,43.37
2019-04-06T23:21:24.726Z,45.60
2019-04-06T23:23:55.644Z,46.57
2019-04-06T23:26:27.771Z,41.27
2019-04-06T23:28:58.416Z,46.10
2019-04-06T23:31:29.148Z,39.93
2019-04-06T23:33:59.853Z,40.60
2019-04-06T23:36:30.461Z,33.67
2019-04-06T23:39:01.086Z,35.77
2019-04-06T23:41:32.223Z,36.40
2019-04-06T23:44:03.148Z,38.00
2019-04-06T23:46:33.745Z,38.53
2019-04-06T23:49:04.169Z,40.57
2019-04-06T23:51:34.864Z,39.63
2019-04-06T23:54:05.837Z,38.27
2019-04-06T23:56:36.784Z,36.77
2019-04-06T23:59:08.749Z,34.97
